Time;durP1;ratioP1;P1;durP2;ratioP2;P2;SDS_P1;SDS_P2;PMS_P1;PMS_P2;Temp;Humidity;BMP_temperature;BMP_pressure;BME280_temperature;BME280_humidity;BME280_pressure;Samples;Min_cycle;Max_cycle;Signal;HPM_P1;HPM_P2
2023/05/04 00:01:38;;;;;;;1.10;0.90;;;21.50;63.10;;;;;;4935811;29;20478;-91
2023/05/04 00:04:05;;;;;;;2.07;1.30;;;21.50;63.20;;;;;;4935755;29;20493;-91
2023/05/04 00:06:32;;;;;;;1.63;1.00;;;21.40;63.10;;;;;;4936101;29;20465;-91
2023/05/04 00:09:00;;;;;;;1.33;1.07;;;21.50;63.20;;;;;;4935828;29;20537;-91
2023/05/04 00:11:27;;;;;;;1.10;0.97;;;21.50;63.10;;;;;;4938606;29;20455;-94
2023/05/04 00:13:54;;;;;;;1.10;0.97;;;21.50;63.10;;;;;;4939610;29;20453;-91
2023/05/04 00:16:21;;;;;;;1.00;0.90;;;21.40;63.10;;;;;;4939800;29;20545;-91
2023/05/04 00:18:48;;;;;;;1.10;0.90;;;21.40;63.00;;;;;;4939502;29;20815;-90
2023/05/04 00:21:15;;;;;;;1.13;0.80;;;21.40;63.00;;;;;;4941236;29;21053;-91
2023/05/04 00:23:41;;;;;;;1.13;0.97;;;21.40;63.00;;;;;;4939991;29;20446;-90
2023/05/04 00:26:10;;;;;;;1.10;0.90;;;21.40;63.10;;;;;;4939310;29;20545;-91
2023/05/04 00:28:37;;;;;;;1.40;1.00;;;21.40;63.10;;;;;;4938903;29;21006;-90
2023/05/04 00:31:03;;;;;;;1.10;0.90;;;21.40;63.00;;;;;;4939140;29;20542;-90
2023/05/04 00:33:30;;;;;;;1.40;1.30;;;21.40;63.00;;;;;;4939098;29;20459;-91
2023/05/04 00:35:57;;;;;;;1.57;1.27;;;21.40;62.90;;;;;;4939117;29;20439;-91
2023/05/04 00:38:24;;;;;;;1.30;0.90;;;21.40;63.00;;;;;;4938846;29;20451;-91
2023/05/04 00:40:51;;;;;;;1.10;1.00;;;21.50;63.00;;;;;;4939316;29;20522;-91
2023/05/04 00:43:19;;;;;;;1.43;0.87;;;21.40;63.00;;;;;;4938694;29;20454;-90
2023/05/04 00:45:46;;;;;;;2.17;1.10;;;21.40;63.00;;;;;;4938964;29;20530;-91
2023/05/04 00:48:12;;;;;;;1.57;1.17;;;21.40;62.90;;;;;;4938627;29;20455;-90
2023/05/04 00:50:40;;;;;;;1.30;0.90;;;21.40;62.90;;;;;;4938617;29;20546;-90
2023/05/04 00:53:09;;;;;;;1.43;1.13;;;21.40;62.90;;;;;;4939605;29;20469;-91
2023/05/04 00:55:39;;;;;;;1.10;1.00;;;21.40;62.90;;;;;;4938983;29;20451;-91
2023/05/04 00:58:07;;;;;;;1.20;0.90;;;21.40;63.00;;;;;;4938495;29;20435;-91
2023/05/04 01:00:36;;;;;;;1.10;0.80;;;21.40;62.90;;;;;;4938176;29;20494;-90
2023/05/04 01:03:03;;;;;;;1.30;1.00;;;21.40;62.90;;;;;;4939024;29;20864;-91
2023/05/04 01:05:36;;;;;;;1.50;0.90;;;21.40;62.90;;;;;;4938329;29;20446;-90
2023/05/04 01:08:09;;;;;;;1.30;1.17;;;21.40;62.90;;;;;;4938320;29;20840;-90
2023/05/04 01:10:45;;;;;;;1.20;1.00;;;21.40;62.90;;;;;;4938140;29;20857;-90
2023/05/04 01:13:13;;;;;;;1.07;0.97;;;21.40;62.90;;;;;;4938226;29;20426;-90
2023/05/04 01:15:42;;;;;;;2.03;1.13;;;21.40;63.00;;;;;;4938406;29;20807;-91
2023/05/04 01:18:09;;;;;;;1.20;1.00;;;21.40;62.90;;;;;;4938232;29;20478;-91
2023/05/04 01:20:36;;;;;;;1.30;1.00;;;21.30;62.80;;;;;;4938165;29;20503;-90
2023/05/04 01:23:05;;;;;;;1.10;0.90;;;21.30;62.80;;;;;;4937532;29;20477;-90
2023/05/04 01:25:36;;;;;;;1.30;1.03;;;21.40;62.90;;;;;;4938171;29;20443;-91
2023/05/04 01:28:08;;;;;;;1.43;1.10;;;21.30;62.80;;;;;;4938212;29;20435;-90
2023/05/04 01:30:39;;;;;;;1.27;1.10;;;21.30;62.80;;;;;;4938162;29;20437;-91
2023/05/04 01:33:06;;;;;;;1.20;1.00;;;21.30;62.80;;;;;;4938215;29;20796;-91
2023/05/04 01:35:34;;;;;;;1.10;0.93;;;21.50;63.00;;;;;;4938531;29;20537;-91
2023/05/04 01:38:01;;;;;;;1.07;0.97;;;21.30;62.80;;;;;;4938434;29;20468;-93
2023/05/04 01:40:29;;;;;;;1.20;1.10;;;21.30;63.70;;;;;;4937521;29;20585;-93
2023/05/04 01:42:56;;;;;;;1.30;1.10;;;21.30;62.80;;;;;;4937636;29;20458;-92
2023/05/04 01:45:23;;;;;;;1.43;1.33;;;21.30;62.80;;;;;;4937690;29;20533;-92
2023/05/04 01:47:50;;;;;;;1.87;1.10;;;21.30;62.80;;;;;;4937709;29;20443;-92
2023/05/04 01:50:17;;;;;;;1.23;1.03;;;21.30;62.80;;;;;;4937674;29;20542;-92
2023/05/04 01:52:44;;;;;;;1.60;1.10;;;21.50;63.00;;;;;;4937468;29;20938;-90
2023/05/04 01:55:11;;;;;;;1.40;1.10;;;21.30;62.70;;;;;;4937807;29;20453;-92
2023/05/04 01:57:39;;;;;;;1.20;1.00;;;21.30;62.80;;;;;;4937698;29;20451;-90
2023/05/04 02:00:07;;;;;;;1.80;1.00;;;21.30;62.80;;;;;;4937177;29;20494;-93
2023/05/04 02:02:34;;;;;;;1.30;1.10;;;21.30;62.80;;;;;;4937465;29;20447;-92
2023/05/04 02:05:01;;;;;;;2.17;1.13;;;21.30;62.80;;;;;;4937525;29;20475;-92
2023/05/04 02:07:27;;;;;;;1.20;1.10;;;21.40;62.90;;;;;;4937206;29;20478;-92
2023/05/04 02:09:54;;;;;;;1.00;0.80;;;21.30;62.80;;;;;;4937530;29;20454;-92
2023/05/04 02:12:21;;;;;;;1.37;1.23;;;21.30;62.80;;;;;;4937620;29;20801;-92
2023/05/04 02:14:49;;;;;;;1.90;1.10;;;21.30;62.80;;;;;;4937402;29;20458;-92
2023/05/04 02:17:16;;;;;;;1.73;1.10;;;21.20;62.70;;;;;;4937164;29;20542;-92
2023/05/04 02:19:43;;;;;;;1.33;1.17;;;21.30;62.80;;;;;;4937032;29;20461;-93
2023/05/04 02:22:09;;;;;;;1.00;0.70;;;21.30;62.80;;;;;;4937072;29;20463;-92
2023/05/04 02:24:39;;;;;;;1.43;1.00;;;21.20;62.70;;;;;;4937086;29;20463;-91
2023/05/04 02:27:06;;;;;;;1.60;1.13;;;21.20;62.70;;;;;;4937149;29;20447;-92
2023/05/04 02:29:32;;;;;;;1.20;1.00;;;21.20;62.70;;;;;;4936930;29;20446;-92
2023/05/04 02:32:01;;;;;;;1.20;1.00;;;21.20;62.70;;;;;;4936665;29;20941;-92
2023/05/04 02:34:27;;;;;;;1.30;1.00;;;21.20;62.70;;;;;;4936194;29;20801;-92
2023/05/04 02:36:54;;;;;;;1.00;0.80;;;21.20;62.70;;;;;;4936641;29;20537;-93
2023/05/04 02:39:21;;;;;;;1.30;1.07;;;21.20;62.70;;;;;;4936642;29;20525;-92
2023/05/04 02:41:48;;;;;;;2.40;1.00;;;21.40;62.90;;;;;;4936457;29;20496;-90
2023/05/04 02:47:38;;;;;;;1.10;0.90;;;21.20;62.70;;;;;;4936646;29;20457;-92
2023/05/04 02:50:06;;;;;;;2.47;1.00;;;21.10;62.70;;;;;;4936703;29;20452;-91
2023/05/04 02:52:33;;;;;;;1.30;1.10;;;21.20;62.80;;;;;;4936461;29;20454;-92
2023/05/04 02:55:00;;;;;;;1.10;0.93;;;21.20;62.70;;;;;;4936672;29;20578;-92
2023/05/04 02:57:27;;;;;;;1.50;1.13;;;21.30;63.70;;;;;;4936428;29;20454;-92
2023/05/04 02:59:54;;;;;;;1.43;1.00;;;21.20;62.70;;;;;;4936344;29;20541;-92
2023/05/04 03:02:21;;;;;;;1.13;0.90;;;21.10;62.70;;;;;;4936606;29;20441;-91
2023/05/04 03:04:49;;;;;;;1.30;1.10;;;21.20;62.70;;;;;;4936405;29;20961;-92
2023/05/04 03:07:16;;;;;;;1.20;0.93;;;21.20;63.60;;;;;;4936603;29;20447;-92
2023/05/04 03:09:43;;;;;;;1.00;0.87;;;21.20;62.70;;;;;;4936962;29;20461;-92
2023/05/04 03:12:10;;;;;;;1.10;0.97;;;21.20;62.70;;;;;;4936568;29;20807;-92
2023/05/04 03:14:36;;;;;;;1.30;0.90;;;21.20;62.70;;;;;;4936097;29;20526;-93
2023/05/04 03:17:03;;;;;;;1.20;1.00;;;21.30;62.80;;;;;;4936510;29;20478;-92
2023/05/04 03:19:30;;;;;;;1.40;1.10;;;21.10;62.60;;;;;;4936194;29;20451;-92
2023/05/04 03:21:58;;;;;;;1.07;0.90;;;21.20;62.70;;;;;;4937085;29;20486;-92
2023/05/04 03:24:25;;;;;;;1.13;0.97;;;21.10;62.60;;;;;;4936271;29;20458;-92
2023/05/04 03:30:14;;;;;;;1.20;1.07;;;21.10;62.70;;;;;;4936204;29;20833;-92
2023/05/04 03:32:41;;;;;;;1.47;1.10;;;21.10;62.80;;;;;;4936359;29;20451;-92
2023/05/04 03:35:08;;;;;;;1.33;1.03;;;21.20;63.00;;;;;;4936372;29;20533;-92
2023/05/04 03:37:36;;;;;;;1.27;1.00;;;21.10;62.80;;;;;;4936055;29;20451;-92
2023/05/04 03:40:04;;;;;;;3.40;1.00;;;21.10;62.80;;;;;;4936218;29;20462;-92
2023/05/04 03:42:31;;;;;;;1.10;0.90;;;21.10;62.70;;;;;;4935938;29;20542;-91
2023/05/04 03:44:57;;;;;;;1.00;0.80;;;21.10;62.80;;;;;;4936697;29;20975;-92
2023/05/04 03:47:25;;;;;;;1.27;1.10;;;21.10;62.80;;;;;;4939789;29;20455;-92
2023/05/04 03:49:51;;;;;;;1.30;1.20;;;21.10;62.80;;;;;;4939928;29;20446;-92
2023/05/04 03:52:18;;;;;;;1.17;1.03;;;21.20;62.90;;;;;;4939671;29;20545;-91
2023/05/04 03:54:46;;;;;;;1.40;1.00;;;21.10;62.70;;;;;;4939690;29;20455;-92
2023/05/04 03:57:13;;;;;;;1.23;0.90;;;21.10;62.80;;;;;;4939685;29;20532;-92
2023/05/04 03:59:40;;;;;;;1.20;1.00;;;21.10;62.60;;;;;;4939889;29;20451;-92
2023/05/04 04:02:07;;;;;;;1.10;0.93;;;21.10;62.70;;;;;;4939411;29;20502;-92
2023/05/04 04:04:34;;;;;;;1.30;0.93;;;21.10;62.70;;;;;;4939677;29;20930;-91
2023/05/04 04:07:01;;;;;;;1.20;1.03;;;21.20;62.90;;;;;;4939574;29;20449;-92
2023/05/04 04:09:27;;;;;;;1.47;1.00;;;21.10;62.70;;;;;;4939620;29;20457;-92
2023/05/04 04:11:56;;;;;;;1.00;0.80;;;21.10;62.60;;;;;;4939510;29;20439;-92
2023/05/04 04:14:23;;;;;;;1.30;1.20;;;21.10;62.70;;;;;;4939316;29;20447;-91
2023/05/04 04:16:50;;;;;;;1.10;0.83;;;21.10;62.60;;;;;;4939478;29;20474;-91
2023/05/04 04:19:16;;;;;;;2.00;1.37;;;21.10;62.70;;;;;;4939310;29;20537;-92
2023/05/04 04:21:43;;;;;;;1.30;1.10;;;21.10;62.60;;;;;;4939611;29;21056;-92
2023/05/04 04:24:10;;;;;;;2.33;1.30;;;21.10;62.70;;;;;;4939086;29;21025;-91
2023/05/04 04:26:37;;;;;;;1.20;1.10;;;21.00;62.50;;;;;;4940055;29;20537;-92
2023/05/04 04:29:06;;;;;;;1.10;0.90;;;21.10;62.70;;;;;;4939720;29;20442;-91
2023/05/04 04:31:33;;;;;;;1.23;1.03;;;21.00;62.50;;;;;;4939243;29;20455;-92
2023/05/04 04:34:01;;;;;;;1.20;0.90;;;21.10;62.60;;;;;;4939275;29;20503;-91
2023/05/04 04:36:28;;;;;;;1.10;1.00;;;21.00;62.50;;;;;;4938977;29;20450;-91
2023/05/04 04:38:55;;;;;;;1.60;1.03;;;21.00;62.50;;;;;;4939295;29;20505;-91
2023/05/04 04:41:22;;;;;;;3.10;1.10;;;21.00;62.60;;;;;;4938991;29;20574;-92
2023/05/04 04:43:48;;;;;;;1.10;0.90;;;21.00;62.50;;;;;;4939043;29;20483;-92
2023/05/04 04:46:17;;;;;;;1.13;1.00;;;21.00;62.50;;;;;;4939664;29;20451;-91
2023/05/04 04:48:43;;;;;;;1.17;1.07;;;21.00;62.40;;;;;;4938872;29;20545;-91
2023/05/04 04:51:11;;;;;;;1.30;0.90;;;21.00;62.50;;;;;;4938566;29;20465;-91
2023/05/04 04:53:38;;;;;;;1.20;1.00;;;21.00;62.60;;;;;;4938901;29;20455;-91
2023/05/04 04:56:06;;;;;;;1.00;0.90;;;21.00;62.60;;;;;;4938119;29;20447;-89
2023/05/04 04:58:33;;;;;;;1.20;1.03;;;21.00;62.50;;;;;;4938539;29;20447;-92
2023/05/04 05:01:02;;;;;;;1.30;1.03;;;21.00;62.70;;;;;;4938300;29;20486;-92
2023/05/04 05:03:31;;;;;;;1.47;1.30;;;21.00;63.30;;;;;;4938934;29;20965;-91
2023/05/04 05:06:00;;;;;;;1.10;1.00;;;21.00;63.70;;;;;;4938561;29;20451;-92
2023/05/04 05:08:27;;;;;;;1.13;1.03;;;21.00;62.80;;;;;;4938672;29;20469;-91
2023/05/04 05:10:55;;;;;;;1.30;1.20;;;21.00;62.90;;;;;;4938166;29;20450;-91
2023/05/04 05:13:21;;;;;;;1.27;1.00;;;21.00;63.70;;;;;;4938172;29;20541;-92
2023/05/04 05:15:48;;;;;;;1.77;1.10;;;21.10;63.10;;;;;;4938179;29;20530;-91
2023/05/04 05:18:15;;;;;;;1.63;0.90;;;21.00;62.90;;;;;;4938289;29;20469;-91
2023/05/04 05:20:43;;;;;;;2.40;1.20;;;21.10;63.10;;;;;;4938294;29;20881;-91
2023/05/04 05:23:10;;;;;;;1.10;0.80;;;21.00;63.00;;;;;;4938280;29;20964;-91
2023/05/04 05:25:37;;;;;;;1.20;0.90;;;21.00;63.10;;;;;;4938715;29;20553;-92
2023/05/04 05:28:04;;;;;;;1.40;1.20;;;21.00;63.20;;;;;;4940501;29;20490;-91
2023/05/04 05:30:31;;;;;;;2.20;1.00;;;21.00;63.20;;;;;;4938239;29;20458;-91
2023/05/04 05:32:58;;;;;;;1.20;1.00;;;21.00;63.10;;;;;;4939159;29;20443;-92
2023/05/04 05:35:25;;;;;;;1.30;1.20;;;21.00;63.20;;;;;;4939467;29;20490;-92
2023/05/04 05:37:53;;;;;;;1.10;1.00;;;21.20;63.40;;;;;;4938083;29;20546;-93
2023/05/04 05:40:21;;;;;;;1.30;0.90;;;21.00;63.20;;;;;;4938070;29;20453;-90
2023/05/04 05:42:51;;;;;;;1.00;0.80;;;21.00;63.30;;;;;;4937635;29;20498;-92
2023/05/04 05:45:18;;;;;;;1.10;1.00;;;21.00;63.30;;;;;;4938723;29;20924;-91
2023/05/04 05:47:46;;;;;;;1.30;1.20;;;21.00;63.30;;;;;;4938266;29;20936;-91
2023/05/04 05:50:13;;;;;;;1.30;0.90;;;21.00;63.20;;;;;;4937803;29;20533;-88
2023/05/04 05:52:40;;;;;;;1.20;0.90;;;21.10;63.40;;;;;;4937617;29;20455;-86
2023/05/04 05:55:09;;;;;;;1.33;1.13;;;21.00;63.00;;;;;;4937643;29;20443;-89
2023/05/04 05:57:36;;;;;;;1.30;0.80;;;21.10;63.40;;;;;;4937435;29;20945;-89
2023/05/04 06:00:04;;;;;;;1.27;1.10;;;21.10;63.30;;;;;;4937216;29;20455;-89
2023/05/04 06:02:31;;;;;;;1.20;0.90;;;21.10;63.10;;;;;;4938090;29;20566;-87
2023/05/04 06:04:58;;;;;;;4.87;1.30;;;21.10;62.80;;;;;;4937570;29;20451;-90
2023/05/04 06:07:25;;;;;;;1.60;1.20;;;21.10;62.00;;;;;;4938150;29;20505;-85
2023/05/04 06:09:52;;;;;;;1.30;1.20;;;21.10;62.10;;;;;;4937546;29;20443;-87
2023/05/04 06:12:20;;;;;;;1.60;1.10;;;21.00;62.70;;;;;;4937818;29;20446;-89
2023/05/04 06:14:47;;;;;;;1.30;1.03;;;21.10;63.20;;;;;;4937193;29;20446;-90
2023/05/04 06:17:14;;;;;;;2.43;1.17;;;21.10;62.70;;;;;;4938176;29;20458;-91
2023/05/04 06:19:41;;;;;;;1.30;1.00;;;21.10;63.30;;;;;;4937123;29;20447;-91
2023/05/04 06:22:07;;;;;;;5.13;1.40;;;21.10;63.50;;;;;;4937000;29;20493;-92
2023/05/04 06:24:34;;;;;;;1.10;1.00;;;21.10;64.10;;;;;;4937036;29;20822;-91
2023/05/04 06:27:02;;;;;;;1.93;1.17;;;21.20;63.60;;;;;;4937118;29;20461;-90
2023/05/04 06:29:30;;;;;;;1.87;1.50;;;21.10;63.70;;;;;;4936749;29;20961;-91
2023/05/04 06:31:57;;;;;;;1.53;0.90;;;21.10;63.70;;;;;;4937120;29;20996;-90
2023/05/04 06:34:24;;;;;;;2.20;1.20;;;21.10;63.60;;;;;;4937130;29;20449;-91
2023/05/04 06:36:50;;;;;;;1.47;1.00;;;21.20;63.70;;;;;;4936869;29;20480;-91
2023/05/04 06:39:18;;;;;;;1.30;1.20;;;21.10;63.60;;;;;;4937367;29;20541;-91
2023/05/04 06:41:45;;;;;;;3.37;1.10;;;21.20;63.70;;;;;;4936715;29;20482;-91
2023/05/04 06:44:11;;;;;;;5.60;1.30;;;21.20;63.70;;;;;;4936515;29;20461;-90
2023/05/04 06:46:40;;;;;;;2.53;1.40;;;21.20;63.80;;;;;;4936996;29;20451;-89
2023/05/04 06:49:06;;;;;;;1.60;1.50;;;21.10;62.80;;;;;;4936722;29;20447;-88
2023/05/04 06:51:36;;;;;;;2.97;1.53;;;21.20;61.80;;;;;;4937017;29;20457;-88
2023/05/04 06:54:03;;;;;;;3.50;1.43;;;21.10;61.20;;;;;;4937101;29;20853;-88
2023/05/04 06:56:29;;;;;;;3.30;1.20;;;21.10;60.90;;;;;;4936750;29;20443;-80
2023/05/04 06:58:57;;;;;;;2.73;1.23;;;21.10;61.40;;;;;;4937776;29;20459;-82
2023/05/04 07:01:23;;;;;;;3.80;1.20;;;21.10;61.80;;;;;;4936665;29;20490;-82
2023/05/04 07:03:52;;;;;;;4.43;1.47;;;21.10;61.60;;;;;;4937052;29;20458;-82
2023/05/04 07:06:19;;;;;;;2.27;1.50;;;21.10;62.10;;;;;;4937009;29;20457;-82
2023/05/04 07:08:46;;;;;;;1.80;1.20;;;21.10;62.80;;;;;;4937163;29;20454;-81
2023/05/04 07:11:13;;;;;;;3.13;1.37;;;21.10;62.90;;;;;;4936967;29;20453;-82
2023/05/04 07:13:40;;;;;;;2.43;1.30;;;21.30;63.30;;;;;;4938002;29;20443;-82
2023/05/04 07:16:07;;;;;;;1.40;1.17;;;21.20;63.50;;;;;;4936942;29;20450;-82
2023/05/04 07:18:34;;;;;;;1.70;1.30;;;21.20;63.50;;;;;;4936816;29;20450;-82
2023/05/04 07:21:02;;;;;;;6.93;1.40;;;21.20;63.60;;;;;;4941794;29;20493;-82
2023/05/04 07:23:29;;;;;;;2.47;1.17;;;21.20;63.70;;;;;;4943653;29;20451;-82
2023/05/04 07:25:56;;;;;;;4.73;1.37;;;21.20;63.70;;;;;;4943110;29;20452;-82
2023/05/04 07:28:22;;;;;;;2.93;1.10;;;21.20;63.80;;;;;;4943037;29;20450;-82
2023/05/04 07:30:50;;;;;;;3.97;1.43;;;21.20;63.90;;;;;;4943198;29;20804;-82
2023/05/04 07:33:16;;;;;;;3.67;1.70;;;21.20;63.90;;;;;;4942938;29;20461;-82
2023/05/04 07:35:43;;;;;;;3.00;1.30;;;21.20;63.90;;;;;;4943526;29;20450;-82
2023/05/04 07:38:11;;;;;;;6.30;1.47;;;21.30;64.10;;;;;;4942844;29;20526;-82
2023/05/04 07:40:38;;;;;;;3.90;1.40;;;21.30;64.20;;;;;;4943380;29;20449;-82
2023/05/04 07:43:06;;;;;;;2.30;1.40;;;21.20;64.10;;;;;;4942101;29;21058;-82
2023/05/04 07:45:34;;;;;;;4.20;1.30;;;21.30;64.30;;;;;;4946210;29;20450;-95
2023/05/04 08:14:48;;;;;;;6.30;1.40;;;21.50;65.10;;;;;;4937164;29;20469;-86
2023/05/04 08:17:15;;;;;;;2.10;1.30;;;21.50;65.10;;;;;;4922877;29;20550;-86
2023/05/04 08:19:42;;;;;;;5.10;1.60;;;21.60;63.10;;;;;;4920846;29;20447;-87
2023/05/04 08:22:23;;;;;;;5.03;1.70;;;21.50;62.90;;;;;;4924665;29;20486;-93
2023/05/04 08:24:51;;;;;;;1.63;1.10;;;21.50;63.80;;;;;;4927000;29;20455;-93
2023/05/04 08:27:28;;;;;;;3.50;1.50;;;21.30;64.00;;;;;;4927184;29;20482;-94
2023/05/04 08:36:37;;;;;;;2.77;1.43;;;21.60;64.60;;;;;;4921529;29;20452;-94
2023/05/04 08:42:02;;;;;;;2.33;1.37;;;21.70;64.80;;;;;;4904935;29;20582;-95
2023/05/04 08:44:34;;;;;;;3.07;1.47;;;21.70;64.70;;;;;;4923443;29;20906;-95
2023/05/04 08:47:17;;;;;;;3.73;1.17;;;21.60;64.60;;;;;;4922543;29;20436;-94
2023/05/04 08:49:47;;;;;;;4.27;1.73;;;21.80;64.90;;;;;;4920207;29;20485;-95
2023/05/04 08:52:17;;;;;;;3.33;2.10;;;21.80;64.90;;;;;;4906015;29;20444;-94
2023/05/04 08:54:46;;;;;;;2.47;1.40;;;21.80;65.00;;;;;;4921587;29;20463;-95
2023/05/04 08:57:15;;;;;;;2.93;1.53;;;22.00;65.20;;;;;;4922925;29;20931;-95
2023/05/04 08:59:47;;;;;;;1.70;1.50;;;21.90;65.10;;;;;;4921899;29;20456;-95
2023/05/04 09:02:21;;;;;;;4.83;2.07;;;21.90;65.10;;;;;;4920654;29;20486;-94
2023/05/04 09:04:51;;;;;;;4.70;1.50;;;21.90;65.20;;;;;;4922615;29;20445;-94
2023/05/04 09:07:19;;;;;;;4.50;2.20;;;22.00;65.40;;;;;;4921695;29;20803;-95
2023/05/04 09:09:49;;;;;;;4.83;2.10;;;22.00;65.40;;;;;;4921815;29;20456;-94
2023/05/04 09:12:17;;;;;;;3.30;1.50;;;22.00;65.40;;;;;;4921540;29;20467;-94
2023/05/04 09:14:46;;;;;;;3.03;1.80;;;22.00;65.40;;;;;;4921221;29;21021;-95
2023/05/04 09:17:24;;;;;;;2.50;2.00;;;22.10;65.50;;;;;;4905192;29;20870;-94
2023/05/04 09:19:59;;;;;;;2.20;1.70;;;22.10;65.40;;;;;;4922738;29;20451;-94
2023/05/04 09:22:32;;;;;;;2.63;1.50;;;22.20;65.40;;;;;;4923444;29;20553;-95
2023/05/04 09:50:51;;;;;;;2.67;1.80;;;22.40;65.80;;;;;;3354683;23;20603;-87
2023/05/04 09:56:04;;;;;;;6.03;2.10;;;22.40;65.40;;;;;;5044227;23;20482;-86
2023/05/04 10:10:51;;;;;;;2.73;1.87;;;22.40;64.80;;;;;;4938824;29;20510;-96
2023/05/04 10:13:17;;;;;;;2.57;1.80;;;22.50;64.90;;;;;;4925508;29;20523;-80
2023/05/04 10:15:54;;;;;;;2.90;1.70;;;22.60;64.90;;;;;;4916323;29;20448;-81
2023/05/04 10:18:30;;;;;;;2.43;1.73;;;22.40;62.70;;;;;;4915873;29;20473;-81
2023/05/04 10:21:15;;;;;;;2.53;1.37;;;22.40;62.20;;;;;;4915956;29;20487;-81
2023/05/04 10:24:06;;;;;;;3.83;1.63;;;22.30;62.50;;;;;;4915826;29;20499;-81
2023/05/04 10:27:07;;;;;;;2.10;2.00;;;22.30;62.40;;;;;;4915794;29;20448;-81
2023/05/04 10:29:36;;;;;;;1.90;1.80;;;22.20;61.90;;;;;;4936500;29;20449;-81
2023/05/04 10:32:03;;;;;;;1.93;1.50;;;22.20;62.20;;;;;;4936813;29;20788;-81
2023/05/04 10:34:31;;;;;;;2.37;1.77;;;22.20;62.30;;;;;;4936904;29;20449;-82
2023/05/04 10:36:58;;;;;;;1.93;1.83;;;22.20;62.40;;;;;;4936609;29;20455;-84
2023/05/04 10:39:27;;;;;;;2.03;1.70;;;22.20;62.80;;;;;;4937637;29;20461;-82
2023/05/04 10:42:00;;;;;;;2.47;2.07;;;22.20;63.50;;;;;;4935578;29;20471;-82
2023/05/04 10:44:28;;;;;;;2.67;1.87;;;22.30;63.70;;;;;;4936329;29;20494;-83
2023/05/04 10:47:04;;;;;;;2.53;1.60;;;22.30;63.80;;;;;;4936480;29;20502;-83
2023/05/04 10:49:31;;;;;;;2.80;1.40;;;22.40;64.00;;;;;;4936446;29;20922;-84
2023/05/04 10:52:10;;;;;;;1.97;1.77;;;22.50;64.20;;;;;;4935710;29;20544;-82
2023/05/04 10:54:36;;;;;;;2.40;1.60;;;22.50;64.10;;;;;;4934762;29;20451;-82
2023/05/04 10:57:06;;;;;;;2.50;2.00;;;22.60;64.30;;;;;;4935222;29;20451;-83
2023/05/04 10:59:33;;;;;;;2.27;1.93;;;22.60;64.40;;;;;;4935568;29;21018;-82
2023/05/04 11:02:01;;;;;;;3.07;1.60;;;22.60;64.30;;;;;;4935592;29;20519;-83
2023/05/04 11:04:27;;;;;;;2.30;1.53;;;22.70;64.40;;;;;;4935198;29;20451;-82
2023/05/04 11:06:58;;;;;;;2.77;2.10;;;22.70;64.40;;;;;;4935154;29;21023;-82
2023/05/04 11:09:26;;;;;;;1.67;1.50;;;22.70;64.60;;;;;;4936325;29;20444;-82
2023/05/04 11:11:55;;;;;;;2.80;2.47;;;22.80;64.80;;;;;;4936321;29;20806;-82
2023/05/04 11:14:28;;;;;;;2.00;1.60;;;22.80;64.90;;;;;;4936561;29;20435;-83
2023/05/04 11:17:06;;;;;;;2.60;1.40;;;22.80;64.90;;;;;;4936310;29;20450;-83
2023/05/04 11:19:33;;;;;;;2.10;1.60;;;22.80;64.90;;;;;;4936421;29;20506;-83
2023/05/04 11:22:01;;;;;;;1.70;1.50;;;22.90;65.10;;;;;;4936351;29;20521;-82
2023/05/04 11:24:37;;;;;;;3.43;1.63;;;22.80;65.00;;;;;;4936136;29;20450;-83
2023/05/04 11:27:04;;;;;;;2.13;1.67;;;22.80;65.20;;;;;;4936253;29;20454;-83
2023/05/04 11:29:32;;;;;;;2.93;2.40;;;22.90;65.20;;;;;;4936021;29;20447;-83
2023/05/04 11:31:59;;;;;;;1.70;1.60;;;22.90;65.40;;;;;;4936295;29;20453;-83
2023/05/04 11:34:26;;;;;;;1.93;1.70;;;22.90;65.40;;;;;;4937786;29;20911;-82
2023/05/04 11:36:53;;;;;;;2.63;1.60;;;22.90;65.40;;;;;;4955735;29;20833;-82
2023/05/04 11:39:20;;;;;;;1.83;1.53;;;22.90;65.60;;;;;;4955164;29;20515;-84
2023/05/04 11:41:47;;;;;;;2.67;1.80;;;22.90;65.60;;;;;;4955559;28;20470;-88
2023/05/04 11:44:16;;;;;;;2.10;1.30;;;22.90;65.60;;;;;;4955239;29;20624;-83
2023/05/04 11:46:46;;;;;;;2.03;1.87;;;22.90;65.60;;;;;;4954863;29;20458;-84
2023/05/04 11:49:13;;;;;;;1.67;1.37;;;22.90;65.60;;;;;;4955091;29;20438;-84
2023/05/04 11:51:40;;;;;;;1.77;1.67;;;23.00;65.70;;;;;;4955003;29;20443;-84
2023/05/04 11:54:07;;;;;;;2.50;2.30;;;23.00;65.70;;;;;;4955011;29;20501;-84
2023/05/04 11:56:43;;;;;;;1.53;1.43;;;23.00;65.70;;;;;;4954840;29;20522;-84
2023/05/04 11:59:10;;;;;;;1.57;1.47;;;23.00;65.20;;;;;;4954257;29;20457;-83
2023/05/04 12:01:37;;;;;;;3.13;1.97;;;23.00;65.40;;;;;;4954813;29;20438;-84
2023/05/04 12:04:06;;;;;;;1.83;1.50;;;23.00;65.50;;;;;;4954815;29;20572;-84
2023/05/04 12:06:33;;;;;;;1.80;1.60;;;23.10;65.50;;;;;;4956303;28;20478;-84
2023/05/04 12:09:05;;;;;;;1.57;1.33;;;23.10;65.40;;;;;;4958688;29;20449;-83
2023/05/04 12:11:32;;;;;;;2.17;1.90;;;23.10;65.50;;;;;;4958461;28;20968;-84
2023/05/04 12:14:03;;;;;;;3.70;1.83;;;23.10;65.50;;;;;;4958323;29;20456;-83
2023/05/04 12:16:30;;;;;;;2.13;1.53;;;23.10;65.50;;;;;;4958326;29;20448;-83
2023/05/04 12:19:03;;;;;;;1.40;1.30;;;23.10;65.50;;;;;;4957528;29;20445;-83
2023/05/04 12:21:32;;;;;;;1.60;1.47;;;23.10;65.60;;;;;;4957642;29;20450;-84
2023/05/04 12:23:59;;;;;;;6.10;1.80;;;23.20;65.70;;;;;;4957212;29;20491;-83
2023/05/04 12:26:26;;;;;;;2.00;1.30;;;23.20;65.70;;;;;;4957524;29;20458;-84
2023/05/04 12:28:53;;;;;;;2.40;1.37;;;23.20;65.70;;;;;;4957402;29;20949;-83
2023/05/04 12:31:20;;;;;;;1.77;1.63;;;23.20;65.70;;;;;;4957323;29;20459;-83
2023/05/04 12:33:48;;;;;;;1.70;1.40;;;23.20;65.70;;;;;;4957685;29;20442;-84
2023/05/04 12:36:16;;;;;;;1.43;1.27;;;23.20;65.70;;;;;;4958350;29;20487;-84
2023/05/04 12:38:44;;;;;;;1.50;1.27;;;23.20;65.70;;;;;;4957976;29;20451;-84
2023/05/04 12:41:11;;;;;;;1.40;1.20;;;23.20;65.70;;;;;;4957741;28;20478;-83
2023/05/04 12:43:38;;;;;;;1.33;1.23;;;23.20;65.70;;;;;;4957454;29;20491;-83
2023/05/04 12:46:05;;;;;;;1.83;1.50;;;23.20;65.70;;;;;;4957467;29;20459;-83
2023/05/04 12:48:32;;;;;;;1.50;1.40;;;23.20;65.70;;;;;;4957740;29;20976;-83
2023/05/04 12:51:00;;;;;;;2.73;1.43;;;23.20;65.80;;;;;;4957689;29;20466;-83
2023/05/04 12:53:28;;;;;;;1.90;1.70;;;23.20;65.80;;;;;;4957774;29;20814;-83
2023/05/04 12:55:57;;;;;;;1.57;1.47;;;23.20;65.80;;;;;;4957715;29;20482;-83
2023/05/04 12:58:23;;;;;;;1.50;1.40;;;23.20;65.70;;;;;;4957605;29;20930;-83
2023/05/04 13:00:50;;;;;;;1.90;1.60;;;23.30;65.80;;;;;;4957674;29;20452;-84
2023/05/04 13:03:18;;;;;;;1.27;1.10;;;23.30;65.70;;;;;;4957603;29;20843;-83
2023/05/04 13:05:45;;;;;;;2.50;1.53;;;23.30;65.80;;;;;;4957547;29;20476;-84
2023/05/04 13:08:12;;;;;;;1.67;1.57;;;23.30;65.80;;;;;;4957524;29;20444;-84
2023/05/04 13:10:39;;;;;;;1.83;1.27;;;23.30;65.80;;;;;;4957064;28;20481;-86
2023/05/04 13:13:07;;;;;;;1.50;1.20;;;23.30;65.80;;;;;;4957639;29;20442;-84
2023/05/04 13:15:34;;;;;;;1.40;1.30;;;23.30;65.80;;;;;;4957042;29;20450;-84
2023/05/04 13:18:00;;;;;;;1.40;1.30;;;23.30;65.80;;;;;;4956517;28;20457;-83
2023/05/04 13:20:27;;;;;;;1.33;1.23;;;23.30;65.90;;;;;;4957281;29;20448;-85
2023/05/04 13:22:54;;;;;;;1.57;1.47;;;23.30;65.90;;;;;;4957173;29;20443;-83
2023/05/04 13:25:21;;;;;;;2.20;1.60;;;23.30;65.90;;;;;;4957446;29;20449;-83
2023/05/04 13:27:48;;;;;;;1.50;1.30;;;23.30;65.90;;;;;;4957109;29;20805;-83
2023/05/04 13:30:19;;;;;;;1.53;1.23;;;23.30;65.90;;;;;;4957379;29;20457;-83
2023/05/04 13:32:47;;;;;;;1.70;1.33;;;23.30;65.90;;;;;;4957068;29;20455;-84
2023/05/04 13:35:14;;;;;;;1.70;1.30;;;23.30;66.00;;;;;;4957143;29;20779;-83
2023/05/04 13:37:41;;;;;;;1.40;1.30;;;23.30;66.00;;;;;;4956834;29;20449;-83
2023/05/04 13:40:09;;;;;;;1.40;1.30;;;23.30;66.20;;;;;;4956788;28;20470;-83
2023/05/04 13:42:36;;;;;;;1.63;1.53;;;23.30;66.10;;;;;;4956567;29;20462;-83
2023/05/04 13:45:03;;;;;;;2.13;1.50;;;23.30;65.90;;;;;;4956586;29;20493;-83
2023/05/04 13:47:31;;;;;;;1.80;1.50;;;23.30;66.00;;;;;;4956668;29;20451;-84
2023/05/04 13:49:58;;;;;;;1.60;1.40;;;23.30;65.90;;;;;;4956485;29;20439;-86
2023/05/04 13:52:25;;;;;;;1.47;1.37;;;23.30;65.70;;;;;;4956341;29;20550;-83
2023/05/04 13:54:52;;;;;;;1.50;1.40;;;23.20;64.80;;;;;;4955720;29;20447;-83
2023/05/04 13:57:19;;;;;;;1.93;1.60;;;23.20;65.30;;;;;;4955867;29;20452;-83
2023/05/04 13:59:46;;;;;;;2.47;1.63;;;23.20;65.40;;;;;;4956637;29;20448;-86
2023/05/04 14:02:13;;;;;;;1.40;1.30;;;23.20;63.20;;;;;;4956358;29;20489;-85
2023/05/04 14:04:42;;;;;;;1.63;1.53;;;;;;;;;;4957866;29;20496;-85
2023/05/04 14:07:09;;;;;;;2.67;1.93;;;;;;;;;;4956058;28;20537;-87
